Time;durP1;ratioP1;P1;durP2;ratioP2;P2;SDS_P1;SDS_P2;PMS_P1;PMS_P2;Temp;Humidity;BMP_temperature;BMP_pressure;BME280_temperature;BME280_humidity;BME280_pressure;Samples;Min_cycle;Max_cycle;Signal;HPM_P1;HPM_P2
2021/07/26 00:02:02;;;;;;;;;;;;;;;;;;5054465;28;19931;-74
2021/07/26 00:04:30;;;;;;;;;;;;;;;;;;5057162;28;20404;-69
2021/07/26 00:06:57;;;;;;;;;;;;;;;;;;5044934;28;20001;-71
2021/07/26 00:09:24;;;;;;;;;;;;;;;;;;5044436;28;20393;-68
2021/07/26 00:11:54;;;;;;;;;;;;;;;;;;5047483;28;20293;-68
2021/07/26 00:14:21;;;;;;;;;;;;;;;;;;5050300;28;20304;-68
2021/07/26 00:16:48;;;;;;;;;;;;;;;;;;5053087;28;19925;-67
2021/07/26 00:19:15;;;;;;;;;;;;;;;;;;5053321;28;19928;-67
2021/07/26 00:21:42;;;;;;;;;;;;;;;;;;5054499;28;19987;-67
2021/07/26 00:24:09;;;;;;;;;;;;;;;;;;5055211;28;20027;-67
2021/07/26 00:26:36;;;;;;;;;;;;;;;;;;5052196;28;20406;-67
2021/07/26 00:29:03;;;;;;;;;;;;;;;;;;5049972;28;19925;-67
2021/07/26 00:31:30;;;;;;;;;;;;;;;;;;5053493;28;19924;-68
2021/07/26 00:34:04;;;;;;;;;;;;;;;;;;5052938;28;19931;-68
2021/07/26 00:36:31;;;;;;;;;;;;;;;;;;5052061;28;19928;-68
2021/07/26 00:38:58;;;;;;;;;;;;;;;;;;5051581;28;20432;-68
2021/07/26 00:41:27;;;;;;;;;;;;;;;;;;5050570;28;19948;-68
2021/07/26 00:43:54;;;;;;;;;;;;;;;;;;5054253;28;19936;-68
2021/07/26 00:46:21;;;;;;;;;;;;;;;;;;5057098;28;19925;-67
2021/07/26 00:48:48;;;;;;;;;;;;;;;;;;5054140;28;19932;-69
2021/07/26 00:51:15;;;;;;;;;;;;;;;;;;5051467;28;19925;-68
2021/07/26 00:53:42;;;;;;;;;;;;;;;;;;5056381;28;19924;-68
2021/07/26 00:56:09;;;;;;;;;;;;;;;;;;5043019;28;20307;-68
2021/07/26 00:58:39;;;;;;;;;;;;;;;;;;5050367;28;19925;-68
2021/07/26 01:01:09;;;;;;;;;;;;;;;;;;5050424;28;19961;-67
2021/07/26 01:03:36;;;;;;;;;;;;;;;;;;5048577;28;19972;-68
2021/07/26 01:06:05;;;;;;;;;;;;;;;;;;5044685;28;19932;-67
2021/07/26 01:08:32;;;;;;;;;;;;;;;;;;5050702;28;19924;-68
2021/07/26 01:10:59;;;;;;;;;;;;;;;;;;5050847;28;19925;-68
2021/07/26 01:13:28;;;;;;;;;;;;;;;;;;5053017;28;19924;-68
2021/07/26 01:15:55;;;;;;;;;;;;;;;;;;5060752;28;19924;-68
2021/07/26 01:18:22;;;;;;;;;;;;;;;;;;5039059;28;20104;-67
2021/07/26 01:20:51;;;;;;;;;;;;;;;;;;5054498;28;20285;-68
2021/07/26 01:23:18;;;;;;;;;;;;;;;;;;5058828;28;20343;-67
2021/07/26 01:25:45;;;;;;;;;;;;;;;;;;5049744;28;20383;-68
2021/07/26 01:28:15;;;;;;;;;;;;;;;;;;5054169;28;20031;-68
2021/07/26 01:30:42;;;;;;;;;;;;;;;;;;5053745;28;19978;-68
2021/07/26 01:33:09;;;;;;;;;;;;;;;;;;5050790;28;19933;-68
2021/07/26 01:35:36;;;;;;;;;;;;;;;;;;5055632;28;20396;-68
2021/07/26 01:38:03;;;;;;;;;;;;;;;;;;5052452;28;19924;-68
2021/07/26 01:40:33;;;;;;;;;;;;;;;;;;5051916;28;19933;-68
2021/07/26 01:43:02;;;;;;;;;;;;;;;;;;5059618;28;19928;-68
2021/07/26 01:45:29;;;;;;;;;;;;;;;;;;5053783;28;19931;-67
2021/07/26 01:47:56;;;;;;;;;;;;;;;;;;5059334;28;20398;-68
2021/07/26 01:50:23;;;;;;;;;;;;;;;;;;5052838;28;20293;-68
2021/07/26 01:52:50;;;;;;;;;;;;;;;;;;5059469;28;20294;-68
2021/07/26 01:55:17;;;;;;;;;;;;;;;;;;5066419;28;19924;-68
2021/07/26 01:57:44;;;;;;;;;;;;;;;;;;5052486;28;19935;-68
2021/07/26 02:00:11;;;;;;;;;;;;;;;;;;5057799;28;19928;-67
2021/07/26 02:02:38;;;;;;;;;;;;;;;;;;5054004;28;19924;-67
2021/07/26 02:05:05;;;;;;;;;;;;;;;;;;5058179;28;19925;-68
2021/07/26 02:07:32;;;;;;;;;;;;;;;;;;5057054;28;20308;-67
2021/07/26 02:09:59;;;;;;;;;;;;;;;;;;5057177;28;19924;-68
2021/07/26 02:12:26;;;;;;;;;;;;;;;;;;5066764;28;19948;-68
2021/07/26 02:14:53;;;;;;;;;;;;;;;;;;5051112;28;19932;-67
2021/07/26 02:17:20;;;;;;;;;;;;;;;;;;5053764;28;19925;-67
2021/07/26 02:19:47;;;;;;;;;;;;;;;;;;5053423;28;20300;-68
2021/07/26 02:22:14;;;;;;;;;;;;;;;;;;5047938;28;19948;-67
2021/07/26 02:24:41;;;;;;;;;;;;;;;;;;5051629;28;19939;-67
2021/07/26 02:27:08;;;;;;;;;;;;;;;;;;5058160;28;20308;-68
2021/07/26 02:29:35;;;;;;;;;;;;;;;;;;5050663;28;20309;-68
2021/07/26 02:32:01;;;;;;;;;;;;;;;;;;5052015;28;19952;-68
2021/07/26 02:34:28;;;;;;;;;;;;;;;;;;5057585;28;19925;-68
2021/07/26 02:36:55;;;;;;;;;;;;;;;;;;5053928;28;19932;-67
2021/07/26 02:39:22;;;;;;;;;;;;;;;;;;5053879;28;19932;-67
2021/07/26 02:41:49;;;;;;;;;;;;;;;;;;5052682;28;19925;-68
2021/07/26 02:44:16;;;;;;;;;;;;;;;;;;5060509;28;19928;-68
2021/07/26 02:46:43;;;;;;;;;;;;;;;;;;5052579;28;20989;-68
2021/07/26 02:49:10;;;;;;;;;;;;;;;;;;5053007;28;19931;-68
2021/07/26 02:51:37;;;;;;;;;;;;;;;;;;5056511;28;19931;-68
2021/07/26 02:54:04;;;;;;;;;;;;;;;;;;5047448;28;19928;-68
2021/07/26 02:56:31;;;;;;;;;;;;;;;;;;5052125;28;19925;-68
2021/07/26 02:58:58;;;;;;;;;;;;;;;;;;5048008;28;19931;-68
2021/07/26 03:01:25;;;;;;;;;;;;;;;;;;5048555;28;19925;-68
2021/07/26 03:03:52;;;;;;;;;;;;;;;;;;5054215;28;19932;-68
2021/07/26 03:06:19;;;;;;;;;;;;;;;;;;5057627;28;19925;-68
2021/07/26 03:08:46;;;;;;;;;;;;;;;;;;5050088;28;19932;-67
2021/07/26 03:11:13;;;;;;;;;;;;;;;;;;5057346;28;20023;-66
2021/07/26 03:13:40;;;;;;;;;;;;;;;;;;5058818;28;20011;-66
2021/07/26 03:16:07;;;;;;;;;;;;;;;;;;5053503;28;19932;-67
2021/07/26 03:18:34;;;;;;;;;;;;;;;;;;5056583;28;20308;-66
2021/07/26 03:21:01;;;;;;;;;;;;;;;;;;5053999;28;19924;-66
2021/07/26 03:23:28;;;;;;;;;;;;;;;;;;5049749;28;19947;-66
2021/07/26 03:25:55;;;;;;;;;;;;;;;;;;5048409;28;19933;-66
2021/07/26 03:28:22;;;;;;;;;;;;;;;;;;5045358;28;19924;-66
2021/07/26 03:30:49;;;;;;;;;;;;;;;;;;5058077;28;19931;-66
2021/07/26 03:33:16;;;;;;;;;;;;;;;;;;5055774;28;20412;-66
2021/07/26 03:35:43;;;;;;;;;;;;;;;;;;5070808;28;19924;-67
2021/07/26 03:38:10;;;;;;;;;;;;;;;;;;5071948;28;19978;-68
2021/07/26 03:40:37;;;;;;;;;;;;;;;;;;5080717;22;19936;-67
2021/07/26 03:43:04;;;;;;;;;;;;;;;;;;5063004;28;19928;-67
2021/07/26 03:45:31;;;;;;;;;;;;;;;;;;5052055;28;19925;-68
2021/07/26 03:47:59;;;;;;;;;;;;;;;;;;5051973;28;19924;-68
2021/07/26 03:50:26;;;;;;;;;;;;;;;;;;5048131;28;19933;-67
2021/07/26 03:52:53;;;;;;;;;;;;;;;;;;5037392;28;20300;-69
2021/07/26 03:55:20;;;;;;;;;;;;;;;;;;5047898;28;20427;-67
2021/07/26 03:57:47;;;;;;;;;;;;;;;;;;5047637;28;19925;-67
2021/07/26 04:00:15;;;;;;;;;;;;;;;;;;5038374;28;19992;-69
2021/07/26 04:02:43;;;;;;;;;;;;;;;;;;5034272;28;19964;-67
2021/07/26 04:05:15;;;;;;;;;;;;;;;;;;5042061;28;19925;-67
2021/07/26 04:07:45;;;;;;;;;;;;;;;;;;5042079;28;19968;-67
2021/07/26 04:10:13;;;;;;;;;;;;;;;;;;5035888;28;19931;-67
2021/07/26 04:12:43;;;;;;;;;;;;;;;;;;5050898;28;20385;-67
2021/07/26 04:15:10;;;;;;;;;;;;;;;;;;5051376;28;20324;-67
2021/07/26 04:17:37;;;;;;;;;;;;;;;;;;5036192;28;19971;-69
2021/07/26 04:20:04;;;;;;;;;;;;;;;;;;5033056;28;19929;-68
2021/07/26 04:22:31;;;;;;;;;;;;;;;;;;5039609;28;19932;-67
2021/07/26 04:24:58;;;;;;;;;;;;;;;;;;5033152;28;19925;-67
2021/07/26 04:27:25;;;;;;;;;;;;;;;;;;5031774;28;19933;-67
2021/07/26 04:29:52;;;;;;;;;;;;;;;;;;5039419;28;19979;-67
2021/07/26 04:32:19;;;;;;;;;;;;;;;;;;5040343;28;19931;-66
2021/07/26 04:34:46;;;;;;;;;;;;;;;;;;5046822;28;19936;-67
2021/07/26 04:37:13;;;;;;;;;;;;;;;;;;5047873;28;20380;-67
2021/07/26 04:39:40;;;;;;;;;;;;;;;;;;5031768;28;19954;-67
2021/07/26 04:42:07;;;;;;;;;;;;;;;;;;5044735;28;19925;-67
2021/07/26 04:44:36;;;;;;;;;;;;;;;;;;5040738;28;20423;-67
2021/07/26 04:47:03;;;;;;;;;;;;;;;;;;5037147;28;19925;-67
2021/07/26 04:49:30;;;;;;;;;;;;;;;;;;5033506;28;19925;-67
2021/07/26 04:51:57;;;;;;;;;;;;;;;;;;5033452;28;20297;-67
2021/07/26 04:54:24;;;;;;;;;;;;;;;;;;5041319;28;19925;-68
2021/07/26 04:56:51;;;;;;;;;;;;;;;;;;5047060;28;19931;-67
2021/07/26 04:59:18;;;;;;;;;;;;;;;;;;5049697;28;19925;-69
2021/07/26 05:01:45;;;;;;;;;;;;;;;;;;5050307;28;19925;-67
2021/07/26 05:04:12;;;;;;;;;;;;;;;;;;5033084;28;19992;-68
2021/07/26 05:06:39;;;;;;;;;;;;;;;;;;5043070;28;19925;-68
2021/07/26 05:09:06;;;;;;;;;;;;;;;;;;5036836;28;19932;-68
2021/07/26 05:11:33;;;;;;;;;;;;;;;;;;5031915;28;19933;-69
2021/07/26 05:14:00;;;;;;;;;;;;;;;;;;5042205;28;19925;-69
2021/07/26 05:16:26;;;;;;;;;;;;;;;;;;5047011;28;19928;-68
2021/07/26 05:18:54;;;;;;;;;;;;;;;;;;5031101;28;19944;-68
2021/07/26 05:21:21;;;;;;;;;;;;;;;;;;5040615;28;20019;-70
2021/07/26 05:23:48;;;;;;;;;;;;;;;;;;5052813;28;19925;-69
2021/07/26 05:26:15;;;;;;;;;;;;;;;;;;5034901;28;19925;-71
2021/07/26 05:28:42;;;;;;;;;;;;;;;;;;5042065;28;19932;-69
2021/07/26 05:31:08;;;;;;;;;;;;;;;;;;5045259;28;19929;-70
2021/07/26 05:33:35;;;;;;;;;;;;;;;;;;5045665;28;19925;-70
2021/07/26 05:36:02;;;;;;;;;;;;;;;;;;5051089;28;19929;-69
2021/07/26 05:38:29;;;;;;;;;;;;;;;;;;5034253;28;20415;-69
2021/07/26 05:40:57;;;;;;;;;;;;;;;;;;5050640;28;20369;-69
2021/07/26 05:43:24;;;;;;;;;;;;;;;;;;5035212;28;20395;-70
2021/07/26 05:45:51;;;;;;;;;;;;;;;;;;5035621;28;20035;-70
2021/07/26 05:48:18;;;;;;;;;;;;;;;;;;5037286;28;20408;-70
2021/07/26 05:50:44;;;;;;;;;;;;;;;;;;5037431;28;19925;-70
2021/07/26 05:53:11;;;;;;;;;;;;;;;;;;5046418;28;19933;-70
2021/07/26 05:55:38;;;;;;;;;;;;;;;;;;5036359;28;19925;-70
2021/07/26 05:58:05;;;;;;;;;;;;;;;;;;5039625;28;19932;-70
2021/07/26 06:00:41;;;;;;;;;;;;;;;;;;5032855;28;19949;-70
2021/07/26 06:03:08;;;;;;;;;;;;;;;;;;5037378;28;19929;-70
2021/07/26 06:05:35;;;;;;;;;;;;;;;;;;5036694;28;19933;-70
2021/07/26 06:08:02;;;;;;;;;;;;;;;;;;5038178;28;19948;-70
2021/07/26 06:10:30;;;;;;;;;;;;;;;;;;5034121;28;19925;-70
2021/07/26 06:12:57;;;;;;;;;;;;;;;;;;5037085;28;19940;-70
2021/07/26 06:15:24;;;;;;;;;;;;;;;;;;5037592;28;19924;-71
2021/07/26 06:17:51;;;;;;;;;;;;;;;;;;5036871;28;19925;-70
2021/07/26 06:20:18;;;;;;;;;;;;;;;;;;5040115;28;20415;-71
2021/07/26 06:22:45;;;;;;;;;;;;;;;;;;5038210;28;20023;-71
2021/07/26 06:25:12;;;;;;;;;;;;;;;;;;5038896;28;20341;-70
2021/07/26 06:27:39;;;;;;;;;;;;;;;;;;5043044;28;19931;-71
2021/07/26 06:30:06;;;;;;;;;;;;;;;;;;5047723;28;20301;-70
2021/07/26 06:32:33;;;;;;;;;;;;;;;;;;5033736;28;19925;-70
2021/07/26 06:35:01;;;;;;;;;;;;;;;;;;5048155;28;19926;-70
2021/07/26 06:37:27;;;;;;;;;;;;;;;;;;5046492;28;20019;-70
2021/07/26 06:39:54;;;;;;;;;;;;;;;;;;5045104;28;19936;-69
2021/07/26 06:42:21;;;;;;;;;;;;;;;;;;5045048;28;19932;-70
2021/07/26 06:44:48;;;;;;;;;;;;;;;;;;5030516;28;19933;-70
2021/07/26 06:47:15;;;;;;;;;;;;;;;;;;5031901;28;20408;-69
2021/07/26 06:49:42;;;;;;;;;;;;;;;;;;5039000;28;19925;-69
2021/07/26 06:52:10;;;;;;;;;;;;;;;;;;5045015;28;19924;-69
2021/07/26 06:54:36;;;;;;;;;;;;;;;;;;5042595;28;19929;-69
2021/07/26 06:57:03;;;;;;;;;;;;;;;;;;5040197;28;19935;-69
2021/07/26 06:59:30;;;;;;;;;;;;;;;;;;5040254;28;19969;-69
2021/07/26 07:01:57;;;;;;;;;;;;;;;;;;5031470;28;20401;-70
2021/07/26 07:04:24;;;;;;;;;;;;;;;;;;5037758;28;20019;-68
2021/07/26 07:06:51;;;;;;;;;;;;;;;;;;5050390;28;19924;-68
2021/07/26 07:09:18;;;;;;;;;;;;;;;;;;5043556;28;20304;-64
2021/07/26 07:11:45;;;;;;;;;;;;;;;;;;5044733;28;19926;-65
2021/07/26 07:14:12;;;;;;;;;;;;;;;;;;5038419;28;20289;-64
2021/07/26 07:16:39;;;;;;;;;;;;;;;;;;5036365;28;19925;-65
2021/07/26 07:19:06;;;;;;;;;;;;;;;;;;5039927;28;19932;-64
2021/07/26 07:21:33;;;;;;;;;;;;;;;;;;5033838;28;20011;-62
2021/07/26 07:24:01;;;;;;;;;;;;;;;;;;5037630;28;20319;-64
2021/07/26 07:26:28;;;;;;;;;;;;;;;;;;5034295;28;19979;-64
2021/07/26 07:28:55;;;;;;;;;;;;;;;;;;5030300;28;20301;-64
2021/07/26 07:31:26;;;;;;;;;;;;;;;;;;5026972;28;20421;-64
2021/07/26 07:33:53;;;;;;;;;;;;;;;;;;5042272;28;19935;-64
2021/07/26 07:36:20;;;;;;;;;;;;;;;;;;5036909;28;19936;-64
2021/07/26 07:38:47;;;;;;;;;;;;;;;;;;5036563;28;19929;-64
2021/07/26 07:41:14;;;;;;;;;;;;;;;;;;5034862;28;19940;-64
2021/07/26 07:43:41;;;;;;;;;;;;;;;;;;5030080;28;19924;-64
2021/07/26 07:46:08;;;;;;;;;;;;;;;;;;5031098;28;19926;-64
2021/07/26 07:48:35;;;;;;;;;;;;;;;;;;5048779;28;19932;-64
2021/07/26 07:51:02;;;;;;;;;;;;;;;;;;5043725;28;19925;-64
2021/07/26 07:53:29;;;;;;;;;;;;;;;;;;5051539;28;20327;-64
2021/07/26 07:55:56;;;;;;;;;;;;;;;;;;5051788;28;19931;-63
2021/07/26 07:58:23;;;;;;;;;;;;;;;;;;5051881;28;19924;-63
2021/07/26 08:00:50;;;;;;;;;;;;;;;;;;5051796;28;19932;-63
2021/07/26 08:03:17;;;;;;;;;;;;;;;;;;5046931;28;20377;-63
2021/07/26 08:05:44;;;;;;;;;;;;;;;;;;5031945;28;20508;-62
2021/07/26 08:08:11;;;;;;;;;;;;;;;;;;5032122;28;19931;-63
2021/07/26 08:10:38;;;;;;;;;;;;;;;;;;5031493;28;19929;-62
2021/07/26 08:13:05;;;;;;;;;;;;;;;;;;5032079;28;19931;-63
2021/07/26 08:15:32;;;;;;;;;;;;;;;;;;5031716;28;20504;-63
2021/07/26 08:17:59;;;;;;;;;;;;;;;;;;5041791;28;19925;-63
2021/07/26 08:20:26;;;;;;;;;;;;;;;;;;5051541;28;19931;-63
2021/07/26 08:22:53;;;;;;;;;;;;;;;;;;5050962;28;19940;-65
2021/07/26 08:25:20;;;;;;;;;;;;;;;;;;5045730;28;20304;-64
2021/07/26 08:27:47;;;;;;;;;;;;;;;;;;5031251;28;19935;-65
2021/07/26 08:30:13;;;;;;;;;;;;;;;;;;5031617;28;19925;-65
2021/07/26 08:32:40;;;;;;;;;;;;;;;;;;5046743;28;19928;-64
2021/07/26 08:35:07;;;;;;;;;;;;;;;;;;5051255;28;19955;-65
2021/07/26 08:37:34;;;;;;;;;;;;;;;;;;5051278;28;20308;-65
2021/07/26 08:40:01;;;;;;;;;;;;;;;;;;5050698;28;19932;-65
2021/07/26 08:42:28;;;;;;;;;;;;;;;;;;5043011;28;19932;-64
2021/07/26 08:44:55;;;;;;;;;;;;;;;;;;5031601;28;19925;-65
2021/07/26 08:47:22;;;;;;;;;;;;;;;;;;5050900;28;19931;-65
2021/07/26 08:49:49;;;;;;;;;;;;;;;;;;5034776;28;19925;-63
2021/07/26 08:52:16;;;;;;;;;;;;;;;;;;5031133;28;19929;-63
2021/07/26 08:54:43;;;;;;;;;;;;;;;;;;5032854;28;19925;-63
2021/07/26 08:57:10;;;;;;;;;;;;;;;;;;5035109;28;19932;-64
2021/07/26 08:59:37;;;;;;;;;;;;;;;;;;5034272;28;19929;-64
2021/07/26 09:02:04;;;;;;;;;;;;;;;;;;5024869;28;20333;-64
2021/07/26 09:04:31;;;;;;;;;;;;;;;;;;5031447;28;19925;-64
2021/07/26 09:06:58;;;;;;;;;;;;;;;;;;5034452;28;19965;-63
2021/07/26 09:09:25;;;;;;;;;;;;;;;;;;5033849;28;21044;-65
2021/07/26 09:11:52;;;;;;;;;;;;;;;;;;5035332;28;19925;-63
2021/07/26 09:14:19;;;;;;;;;;;;;;;;;;5035190;28;20043;-63
2021/07/26 09:16:51;;;;;;;;;;;;;;;;;;5035017;28;19926;-63
2021/07/26 09:19:18;;;;;;;;;;;;;;;;;;5033436;28;19947;-64
2021/07/26 09:21:45;;;;;;;;;;;;;;;;;;5034131;28;20004;-64
2021/07/26 09:24:12;;;;;;;;;;;;;;;;;;5034430;28;19925;-64
2021/07/26 09:26:39;;;;;;;;;;;;;;;;;;5033685;28;19932;-64
2021/07/26 09:29:06;;;;;;;;;;;;;;;;;;5033763;28;20015;-62
2021/07/26 09:31:33;;;;;;;;;;;;;;;;;;5035242;28;19933;-64
2021/07/26 09:34:00;;;;;;;;;;;;;;;;;;5034945;28;19925;-64
2021/07/26 09:36:27;;;;;;;;;;;;;;;;;;5026633;28;19936;-64
2021/07/26 09:38:55;;;;;;;;;;;;;;;;;;5053371;22;24484;-64
2021/07/26 09:41:22;;;;;;;;;;;;;;;;;;5074248;28;19951;-64
2021/07/26 09:43:49;;;;;;;;;;;;;;;;;;5073726;28;20016;-64
2021/07/26 09:46:16;;;;;;;;;;;;;;;;;;5075667;28;19935;-64
2021/07/26 09:48:43;;;;;;;;;;;;;;;;;;5073926;28;19924;-64
2021/07/26 09:51:10;;;;;;;;;;;;;;;;;;5069444;28;19931;-67
2021/07/26 09:53:37;;;;;;;;;;;;;;;;;;5064368;28;19947;-66
2021/07/26 09:56:04;;;;;;;;;;;;;;;;;;5062979;28;20011;-65
2021/07/26 09:58:31;;;;;;;;;;;;;;;;;;5067083;28;20327;-66
2021/07/26 10:00:58;;;;;;;;;;;;;;;;;;5067247;28;20255;-65
2021/07/26 10:03:25;;;;;;;;;;;;;;;;;;5066376;28;20426;-65
2021/07/26 10:05:52;;;;;;;;;;;;;;;;;;5063053;28;19931;-65
2021/07/26 10:08:19;;;;;;;;;;;;;;;;;;5063237;28;19925;-65
2021/07/26 10:10:46;;;;;;;;;;;;;;;;;;5060550;28;19929;-66
2021/07/26 10:13:13;;;;;;;;;;;;;;;;;;5061688;28;19947;-66
2021/07/26 10:15:40;;;;;;;;;;;;;;;;;;5063763;28;19941;-66
2021/07/26 10:18:09;;;;;;;;;;;;;;;;;;5065124;28;19936;-66
2021/07/26 10:20:36;;;;;;;;;;;;;;;;;;5064561;28;19937;-65
2021/07/26 10:23:03;;;;;;;;;;;;;;;;;;5063535;28;19932;-64
2021/07/26 10:25:30;;;;;;;;;;;;;;;;;;5064487;28;19924;-68
2021/07/26 10:27:57;;;;;;;;;;;;;;;;;;5063456;28;19925;-66
2021/07/26 10:30:24;;;;;;;;;;;;;;;;;;5063757;28;20246;-66
2021/07/26 10:32:51;;;;;;;;;;;;;;;;;;5063343;28;19924;-66
2021/07/26 10:35:18;;;;;;;;;;;;;;;;;;5066290;28;20011;-66
2021/07/26 10:37:45;;;;;;;;;;;;;;;;;;5062066;28;19940;-65
2021/07/26 10:40:12;;;;;;;;;;;;;;;;;;5061962;28;20284;-65
2021/07/26 10:42:39;;;;;;;;;;;;;;;;;;5063018;28;19935;-65
2021/07/26 10:45:06;;;;;;;;;;;;;;;;;;5063021;28;20307;-66
2021/07/26 10:47:33;;;;;;;;;;;;;;;;;;5062616;28;19931;-66
2021/07/26 10:49:59;;;;;;;;;;;;;;;;;;5058129;28;20020;-66
2021/07/26 10:52:26;;;;;;;;;;;;;;;;;;5061074;28;20019;-67
2021/07/26 10:54:55;;;;;;;;;;;;;;;;;;5063650;28;20424;-67
2021/07/26 10:57:22;;;;;;;;;;;;;;;;;;5062530;28;20357;-65
2021/07/26 10:59:49;;;;;;;;;;;;;;;;;;5063433;28;19928;-67
2021/07/26 11:02:16;;;;;;;;;;;;;;;;;;5051802;28;20347;-66
2021/07/26 11:04:43;;;;;;;;;;;;;;;;;;5065310;28;19930;-66
2021/07/26 11:07:10;;;;;;;;;;;;;;;;;;5064384;28;20393;-66
2021/07/26 11:09:37;;;;;;;;;;;;;;;;;;5065235;28;20019;-64
2021/07/26 11:12:04;;;;;;;;;;;;;;;;;;5066200;28;20281;-66
2021/07/26 11:14:31;;;;;;;;;;;;;;;;;;5062056;28;19931;-66
2021/07/26 11:17:00;;;;;;;;;;;;;;;;;;5064042;28;19931;-66
2021/07/26 11:19:27;;;;;;;;;;;;;;;;;;5069766;28;19951;-66
2021/07/26 11:21:54;;;;;;;;;;;;;;;;;;5065201;28;20027;-66
2021/07/26 11:24:21;;;;;;;;;;;;;;;;;;5063581;28;19929;-67
2021/07/26 11:26:48;;;;;;;;;;;;;;;;;;5062669;28;20506;-67
2021/07/26 11:29:15;;;;;;;;;;;;;;;;;;5070001;28;19936;-65
2021/07/26 11:31:42;;;;;;;;;;;;;;;;;;5062748;28;19924;-65
2021/07/26 11:34:09;;;;;;;;;;;;;;;;;;5063223;28;19931;-65
2021/07/26 11:36:36;;;;;;;;;;;;;;;;;;5065068;28;19925;-65
2021/07/26 11:39:03;;;;;;;;;;;;;;;;;;5064515;28;19928;-67
2021/07/26 11:41:30;;;;;;;;;;;;;;;;;;5062941;28;20380;-65
2021/07/26 11:43:57;;;;;;;;;;;;;;;;;;5061330;28;19935;-66
2021/07/26 11:46:24;;;;;;;;;;;;;;;;;;5063125;28;20337;-66
2021/07/26 11:48:51;;;;;;;;;;;;;;;;;;5060833;28;19924;-66
2021/07/26 11:51:18;;;;;;;;;;;;;;;;;;5059996;28;19924;-65
2021/07/26 11:53:45;;;;;;;;;;;;;;;;;;5062775;28;19924;-64
2021/07/26 11:56:12;;;;;;;;;;;;;;;;;;5061662;28;20392;-67
2021/07/26 11:58:39;;;;;;;;;;;;;;;;;;5062179;28;19924;-67
2021/07/26 12:01:06;;;;;;;;;;;;;;;;;;5057844;28;19931;-66
2021/07/26 12:03:33;;;;;;;;;;;;;;;;;;5062523;28;19935;-66
2021/07/26 12:06:00;;;;;;;;;;;;;;;;;;5060940;28;19931;-66
2021/07/26 12:08:27;;;;;;;;;;;;;;;;;;5062556;28;20293;-66
2021/07/26 12:10:54;;;;;;;;;;;;;;;;;;5060688;28;19924;-66
2021/07/26 12:13:21;;;;;;;;;;;;;;;;;;5061284;28;19924;-66
2021/07/26 12:15:48;;;;;;;;;;;;;;;;;;5061440;28;19924;-65
2021/07/26 12:18:15;;;;;;;;;;;;;;;;;;5061381;28;19925;-65
2021/07/26 12:20:42;;;;;;;;;;;;;;;;;;5063058;28;19925;-65
2021/07/26 12:23:09;;;;;;;;;;;;;;;;;;5061197;28;19928;-65
2021/07/26 12:25:36;;;;;;;;;;;;;;;;;;5060885;28;19924;-65
2021/07/26 12:28:03;;;;;;;;;;;;;;;;;;5061120;28;20308;-64
2021/07/26 12:30:30;;;;;;;;;;;;;;;;;;5060691;28;19931;-66
2021/07/26 12:32:57;;;;;;;;;;;;;;;;;;5061841;28;19979;-66
2021/07/26 12:35:24;;;;;;;;;;;;;;;;;;5061318;28;19924;-65
2021/07/26 12:37:51;;;;;;;;;;;;;;;;;;5062034;28;19925;-66
2021/07/26 12:40:18;;;;;;;;;;;;;;;;;;5060899;28;19925;-65
2021/07/26 12:42:45;;;;;;;;;;;;;;;;;;5061193;28;20307;-65
2021/07/26 12:45:12;;;;;;;;;;;;;;;;;;5063354;28;19925;-68
2021/07/26 12:47:39;;;;;;;;;;;;;;;;;;5060275;28;19924;-69
2021/07/26 12:50:06;;;;;;;;;;;;;;;;;;5058217;28;19924;-67
2021/07/26 12:52:33;;;;;;;;;;;;;;;;;;5061701;28;19924;-66
2021/07/26 12:54:59;;;;;;;;;;;;;;;;;;5057970;28;19928;-66
2021/07/26 12:57:26;;;;;;;;;;;;;;;;;;5060215;28;20031;-66
2021/07/26 12:59:53;;;;;;;;;;;;;;;;;;5063813;28;19935;-66
2021/07/26 13:02:20;;;;;;;;;;;;;;;;;;5064897;28;20332;-65
2021/07/26 13:04:47;;;;;;;;;;;;;;;;;;5059938;28;19940;-64
2021/07/26 13:07:15;;;;;;;;;;;;;;;;;;5058536;28;20452;-67
2021/07/26 13:09:42;;;;;;;;;;;;;;;;;;5051519;28;19925;-67
2021/07/26 13:12:09;;;;;;;;;;;;;;;;;;5050362;28;19925;-67
2021/07/26 13:14:36;;;;;;;;;;;;;;;;;;5050609;28;19925;-67
2021/07/26 13:17:03;;;;;;;;;;;;;;;;;;5051005;28;19935;-67
2021/07/26 13:19:30;;;;;;;;;;;;;;;;;;5050982;28;20300;-67
2021/07/26 13:21:57;;;;;;;;;;;;;;;;;;5068283;28;19929;-68
2021/07/26 13:24:24;;;;;;;;;;;;;;;;;;5072046;28;19931;-67
2021/07/26 13:26:51;;;;;;;;;;;;;;;;;;5070990;28;19932;-67
2021/07/26 13:29:18;;;;;;;;;;;;;;;;;;5068886;28;20467;-66
2021/07/26 13:31:45;;;;;;;;;;;;;;;;;;5071283;28;19931;-66
2021/07/26 13:34:12;;;;;;;;;;;;;;;;;;5065065;28;19931;-67
2021/07/26 13:36:39;;;;;;;;;;;;;;;;;;5051468;28;19931;-67
2021/07/26 13:39:06;;;;;;;;;;;;;;;;;;5050582;28;19947;-66
2021/07/26 13:41:33;;;;;;;;;;;;;;;;;;5053744;28;19968;-67
2021/07/26 13:44:00;;;;;;;;;;;;;;;;;;5055037;28;19960;-66
2021/07/26 13:46:27;;;;;;;;;;;;;;;;;;5071817;28;19928;-67
2021/07/26 13:48:54;;;;;;;;;;;;;;;;;;5073390;28;19924;-67
2021/07/26 13:51:21;;;;;;;;;;;;;;;;;;5052627;28;20483;-67
2021/07/26 13:53:48;;;;;;;;;;;;;;;;;;5053990;28;19931;-67
2021/07/26 13:56:15;;;;;;;;;;;;;;;;;;5053895;28;19925;-67
2021/07/26 13:58:42;;;;;;;;;;;;;;;;;;5056369;28;19932;-67
2021/07/26 14:01:09;;;;;;;;;;;;;;;;;;5056099;28;19947;-68
2021/07/26 14:03:36;;;;;;;;;;;;;;;;;;5067407;28;19931;-66
2021/07/26 14:06:03;;;;;;;;;;;;;;;;;;5067128;28;19940;-65
2021/07/26 14:08:30;;;;;;;;;;;;;;;;;;5063380;28;19931;-68
2021/07/26 14:10:57;;;;;;;;;;;;;;;;;;5052073;28;19928;-67
2021/07/26 14:13:24;;;;;;;;;;;;;;;;;;5062320;28;19935;-67
2021/07/26 14:15:51;;;;;;;;;;;;;;;;;;5062606;28;20307;-67
2021/07/26 14:18:18;;;;;;;;;;;;;;;;;;5064377;28;19925;-66
2021/07/26 14:20:45;;;;;;;;;;;;;;;;;;5063724;28;19931;-67
2021/07/26 14:23:12;;;;;;;;;;;;;;;;;;5063540;28;19935;-67
2021/07/26 14:25:39;;;;;;;;;;;;;;;;;;5063891;28;19925;-66
2021/07/26 14:28:06;;;;;;;;;;;;;;;;;;5062772;28;20004;-66
2021/07/26 14:30:33;;;;;;;;;;;;;;;;;;5063604;28;19931;-66
2021/07/26 14:33:00;;;;;;;;;;;;;;;;;;5063451;28;19925;-66
2021/07/26 14:35:27;;;;;;;;;;;;;;;;;;5063626;28;20578;-66
2021/07/26 14:37:54;;;;;;;;;;;;;;;;;;5063742;28;19925;-66
2021/07/26 14:40:21;;;;;;;;;;;;;;;;;;5062420;28;20460;-66
2021/07/26 14:42:48;;;;;;;;;;;;;;;;;;5062324;28;19929;-65
2021/07/26 14:45:14;;;;;;;;;;;;;;;;;;5068006;28;19947;-66
2021/07/26 14:47:41;;;;;;;;;;;;;;;;;;5062580;28;19924;-65
2021/07/26 14:50:08;;;;;;;;;;;;;;;;;;5063137;28;19931;-66
2021/07/26 14:52:35;;;;;;;;;;;;;;;;;;5061718;28;19925;-65
2021/07/26 14:55:02;;;;;;;;;;;;;;;;;;5062494;28;20336;-67
2021/07/26 14:57:29;;;;;;;;;;;;;;;;;;5062086;28;19948;-68
2021/07/26 14:59:56;;;;;;;;;;;;;;;;;;5065062;28;20003;-67
2021/07/26 15:02:25;;;;;;;;;;;;;;;;;;5061130;28;19925;-66
2021/07/26 15:04:52;;;;;;;;;;;;;;;;;;5064686;28;20374;-65
2021/07/26 15:07:19;;;;;;;;;;;;;;;;;;5062677;28;19935;-64
2021/07/26 15:09:46;;;;;;;;;;;;;;;;;;5061697;28;19933;-66
2021/07/26 15:12:14;;;;;;;;;;;;;;;;;;5063146;28;20370;-64
2021/07/26 15:14:41;;;;;;;;;;;;;;;;;;5063080;28;19978;-68
2021/07/26 15:17:08;;;;;;;;;;;;;;;;;;5062476;28;19939;-67
2021/07/26 15:19:35;;;;;;;;;;;;;;;;;;5063119;28;19932;-65
2021/07/26 15:22:02;;;;;;;;;;;;;;;;;;5061028;28;19929;-65
2021/07/26 15:24:29;;;;;;;;;;;;;;;;;;5065435;28;19932;-66
2021/07/26 15:26:56;;;;;;;;;;;;;;;;;;5061831;28;19925;-67
2021/07/26 15:29:23;;;;;;;;;;;;;;;;;;5051743;28;20377;-66
2021/07/26 15:31:49;;;;;;;;;;;;;;;;;;5052512;28;19932;-66
2021/07/26 15:34:16;;;;;;;;;;;;;;;;;;5052198;28;19928;-66
2021/07/26 15:36:43;;;;;;;;;;;;;;;;;;5052480;28;19947;-65
2021/07/26 15:39:10;;;;;;;;;;;;;;;;;;5064022;22;19924;-71
2021/07/26 15:41:37;;;;;;;;;;;;;;;;;;5052401;28;20300;-72
2021/07/26 15:44:04;;;;;;;;;;;;;;;;;;5052228;28;20605;-72
2021/07/26 15:46:31;;;;;;;;;;;;;;;;;;5054441;28;19924;-72
2021/07/26 15:48:58;;;;;;;;;;;;;;;;;;5048658;28;20023;-73
2021/07/26 15:51:25;;;;;;;;;;;;;;;;;;5032386;28;20028;-73
2021/07/26 15:53:52;;;;;;;;;;;;;;;;;;5030852;28;20377;-72
2021/07/26 15:56:19;;;;;;;;;;;;;;;;;;5018570;28;19925;-73
2021/07/26 15:58:46;;;;;;;;;;;;;;;;;;5014780;28;19958;-73
2021/07/26 16:01:13;;;;;;;;;;;;;;;;;;5017970;28;20393;-72
2021/07/26 16:03:40;;;;;;;;;;;;;;;;;;5032229;28;20011;-72
2021/07/26 16:06:07;;;;;;;;;;;;;;;;;;5032418;28;19925;-72
2021/07/26 16:08:34;;;;;;;;;;;;;;;;;;5032156;28;19925;-72
2021/07/26 16:11:01;;;;;;;;;;;;;;;;;;5041108;28;19924;-71
2021/07/26 16:13:28;;;;;;;;;;;;;;;;;;5052012;28;19925;-73
2021/07/26 16:15:55;;;;;;;;;;;;;;;;;;5051821;28;19924;-72
2021/07/26 16:18:22;;;;;;;;;;;;;;;;;;5064988;28;19952;-72
2021/07/26 16:20:52;;;;;;;;;;;;;;;;;;5065366;28;20028;-72
2021/07/26 16:23:19;;;;;;;;;;;;;;;;;;5050155;28;20312;-71
2021/07/26 16:25:46;;;;;;;;;;;;;;;;;;5027633;28;19944;-72
2021/07/26 16:28:13;;;;;;;;;;;;;;;;;;5031697;28;20424;-71
2021/07/26 16:30:40;;;;;;;;;;;;;;;;;;5013100;28;20052;-72
2021/07/26 16:33:07;;;;;;;;;;;;;;;;;;5051245;28;19972;-72
2021/07/26 16:35:34;;;;;;;;;;;;;;;;;;5040489;28;20413;-71
2021/07/26 16:38:01;;;;;;;;;;;;;;;;;;5021467;28;20466;-72
2021/07/26 16:40:28;;;;;;;;;;;;;;;;;;5011448;28;20390;-72
2021/07/26 16:42:56;;;;;;;;;;;;;;;;;;5014328;28;19932;-72
2021/07/26 16:45:23;;;;;;;;;;;;;;;;;;5033191;28;19932;-72